Time,TemperatureF,DewpointF,PressureIn,WindDirection,WindDirectionDegrees,WindSpeedMPH,WindSpeedGustMPH,Humidity,HourlyPrecipIn,Conditions,Clouds,dailyrainin,SolarRadiationWatts/m^2,SoftwareType,DateUTC
2013-05-03 00:01:00,46.0,-12.0,-100.00,WNW,288,0.0,9.0,8,0.00,,,0.00,0.000000,,2013-05-03 07:01:00,
2013-05-03 00:11:00,46.0,-12.0,-100.00,WNW,288,0.0,9.0,8,0.00,,,0.00,0.000000,,2013-05-03 07:11:00,
2013-05-03 00:21:00,46.0,-12.0,-100.00,WNW,288,0.0,9.0,8,0.00,,,0.00,0.000000,,2013-05-03 07:21:00,
2013-05-03 00:31:00,46.0,-12.0,-100.00,WNW,288,0.0,9.0,8,0.00,,,0.00,0.000000,,2013-05-03 07:31:00,
2013-05-03 01:01:00,48.0,-13.0,-100.00,NE,34,0.0,7.0,7,0.00,,,0.00,0.000000,,2013-05-03 08:01:00,
2013-05-03 01:11:00,48.0,-13.0,-100.00,NE,34,0.0,7.0,7,0.00,,,0.00,0.000000,,2013-05-03 08:11:00,
2013-05-03 01:21:00,48.0,-13.0,-100.00,NE,34,0.0,7.0,7,0.00,,,0.00,0.000000,,2013-05-03 08:21:00,
2013-05-03 01:31:00,48.0,-13.0,-100.00,NE,34,0.0,7.0,7,0.00,,,0.00,0.000000,,2013-05-03 08:31:00,
2013-05-03 02:01:00,44.0,-9.0,-100.00,North,2,0.0,6.0,10,0.00,,,0.00,0.000000,,2013-05-03 09:01:00,
2013-05-03 02:11:00,44.0,-9.0,-100.00,North,2,0.0,6.0,10,0.00,,,0.00,0.000000,,2013-05-03 09:11:00,
2013-05-03 02:21:00,44.0,-9.0,-100.00,North,2,0.0,6.0,10,0.00,,,0.00,0.000000,,2013-05-03 09:21:00,
2013-05-03 02:32:00,44.0,-9.0,-100.00,North,2,0.0,6.0,10,0.00,,,0.00,0.000000,,2013-05-03 09:32:00,
2013-05-03 03:02:00,45.0,-10.0,-100.00,NNE,31,0.0,5.0,9,0.00,,,0.00,0.000000,,2013-05-03 10:02:00,
2013-05-03 03:12:00,45.0,-10.0,-100.00,NNE,31,0.0,5.0,9,0.00,,,0.00,0.000000,,2013-05-03 10:12:00,
2013-05-03 03:22:00,45.0,-10.0,-100.00,NNE,31,0.0,5.0,9,0.00,,,0.00,0.000000,,2013-05-03 10:22:00,
2013-05-03 03:32:00,45.0,-10.0,-100.00,NNE,31,0.0,5.0,9,0.00,,,0.00,0.000000,,2013-05-03 10:32:00,
2013-05-03 04:02:00,44.0,-9.0,-100.00,ENE,64,0.0,5.0,10,0.00,,,0.00,0.000000,,2013-05-03 11:02:00,
2013-05-03 04:11:00,44.0,-9.0,-100.00,ENE,64,0.0,5.0,10,0.00,,,0.00,0.000000,,2013-05-03 11:11:00,
2013-05-03 04:22:00,44.0,-9.0,-100.00,ENE,64,0.0,5.0,10,0.00,,,0.00,0.000000,,2013-05-03 11:22:00,
2013-05-03 04:31:00,44.0,-9.0,-100.00,ENE,64,0.0,5.0,10,0.00,,,0.00,0.000000,,2013-05-03 11:31:00,
2013-05-03 05:01:00,46.0,-7.0,-100.00,ENE,60,1.0,8.0,10,0.00,,,0.00,0.000000,,2013-05-03 12:01:00,
2013-05-03 05:11:00,46.0,-7.0,-100.00,ENE,60,1.0,8.0,10,0.00,,,0.00,0.000000,,2013-05-03 12:11:00,
2013-05-03 05:21:00,46.0,-7.0,-100.00,ENE,60,1.0,8.0,10,0.00,,,0.00,0.000000,,2013-05-03 12:21:00,
2013-05-03 05:32:00,46.0,-7.0,-100.00,ENE,60,1.0,8.0,10,0.00,,,0.00,0.000000,,2013-05-03 12:32:00,
2013-05-03 06:01:00,46.0,-7.0,-100.00,ENE,67,3.0,9.0,10,0.00,,,0.00,0.000000,,2013-05-03 13:01:00,
2013-05-03 06:11:00,46.0,-7.0,-100.00,ENE,67,3.0,9.0,10,0.00,,,0.00,0.000000,,2013-05-03 13:11:00,
2013-05-03 06:22:00,46.0,-7.0,-100.00,ENE,67,3.0,9.0,10,0.00,,,0.00,0.000000,,2013-05-03 13:22:00,
2013-05-03 06:31:00,46.0,-7.0,-100.00,ENE,67,3.0,9.0,10,0.00,,,0.00,0.000000,,2013-05-03 13:31:00,
2013-05-03 07:02:00,50.0,-2.0,-100.00,NNE,29,1.0,9.0,11,0.00,,,0.00,8.000000,,2013-05-03 14:02:00,
2013-05-03 07:31:00,50.0,-2.0,-100.00,NNE,29,1.0,9.0,11,0.00,,,0.00,8.000000,,2013-05-03 14:31:00,
2013-05-03 08:01:00,55.0,3.0,-100.00,North,355,1.0,8.0,12,0.00,,,0.00,107.000000,,2013-05-03 15:01:00,
2013-05-03 09:03:00,66.0,0.0,-100.00,SW,229,1.0,8.0,7,0.00,,,0.00,527.000000,,2013-05-03 16:03:00,
2013-05-03 10:02:00,70.0,0.0,-100.00,NNW,337,4.0,8.0,6,-99.99,,,0.00,795.000000,,2013-05-03 17:02:00,
2013-05-03 11:01:00,73.0,2.0,-100.00,West,260,3.0,9.0,6,-99.99,,,0.00,1016.000000,,2013-05-03 18:01:00,
2013-05-03 12:01:00,73.0,2.0,-100.00,West,267,1.0,9.0,6,-99.99,,,0.00,1178.000000,,2013-05-03 19:01:00,
2013-05-03 13:02:00,74.0,-1.0,-100.00,South,173,2.0,10.0,5,-99.99,,,-99.99,1235.000000,,2013-05-03 20:02:00,
2013-05-03 14:01:00,75.0,-5.0,-100.00,North,3,2.0,9.0,4,-99.99,,,0.00,1202.000000,,2013-05-03 21:01:00,
2013-05-03 15:02:00,75.0,-5.0,-100.00,WSW,249,2.0,13.0,4,-99.99,,,0.00,1069.000000,,2013-05-03 22:02:00,
2013-05-03 16:01:00,74.0,-1.0,-100.00,NNE,32,3.0,9.0,5,0.00,,,0.00,1052.000000,,2013-05-03 23:01:00,
2013-05-03 16:11:00,74.0,-1.0,-100.00,NNE,32,3.0,9.0,5,0.00,,,0.00,1052.000000,,2013-05-03 23:11:00,
2013-05-03 16:21:00,74.0,-1.0,-100.00,NNE,32,3.0,9.0,5,0.00,,,0.00,1052.000000,,2013-05-03 23:21:00,
2013-05-03 16:31:00,74.0,-1.0,-100.00,NNE,32,3.0,9.0,5,0.00,,,0.00,1052.000000,,2013-05-03 23:31:00,
2013-05-03 17:01:00,76.0,0.0,-100.00,WNW,302,2.0,11.0,5,0.00,,,0.00,898.000000,,2013-05-04 00:01:00,
2013-05-03 18:01:00,68.0,2.0,-100.00,WSW,245,2.0,15.0,7,-99.99,,,0.00,515.000000,,2013-05-04 01:01:00,
2013-05-03 18:11:00,68.0,2.0,-100.00,WSW,245,2.0,15.0,7,-99.99,,,0.00,515.000000,,2013-05-04 01:11:00,
2013-05-03 18:21:00,68.0,2.0,-100.00,WSW,245,2.0,15.0,7,-99.99,,,0.00,515.000000,,2013-05-04 01:21:00,
2013-05-03 18:31:00,68.0,2.0,-100.00,WSW,245,2.0,15.0,7,-99.99,,,0.00,515.000000,,2013-05-04 01:31:00,
2013-05-03 19:02:00,63.0,10.0,-100.00,SSW,208,1.0,11.0,12,0.00,,,0.00,67.000000,,2013-05-04 02:02:00,
2013-05-03 19:11:00,63.0,10.0,-100.00,SSW,208,1.0,11.0,12,0.00,,,0.00,67.000000,,2013-05-04 02:11:00,
2013-05-03 19:21:00,63.0,10.0,-100.00,SSW,208,1.0,11.0,12,0.00,,,0.00,67.000000,,2013-05-04 02:21:00,
2013-05-03 19:32:00,63.0,10.0,-100.00,SSW,208,1.0,11.0,12,0.00,,,0.00,67.000000,,2013-05-04 02:32:00,
2013-05-03 20:02:00,55.0,8.0,-100.00,NW,304,0.0,8.0,15,0.00,,,0.00,30.000000,,2013-05-04 03:02:00,
2013-05-03 20:11:00,55.0,8.0,-100.00,NW,304,0.0,8.0,15,0.00,,,0.00,30.000000,,2013-05-04 03:11:00,
2013-05-03 20:21:00,55.0,8.0,-100.00,NW,304,0.0,8.0,15,0.00,,,0.00,30.000000,,2013-05-04 03:21:00,
2013-05-03 20:32:00,55.0,8.0,-100.00,NW,304,0.0,8.0,15,0.00,,,0.00,30.000000,,2013-05-04 03:32:00,
2013-05-03 21:02:00,45.0,9.0,-100.00,North,359,0.0,0.0,23,0.00,,,0.00,0.000000,,2013-05-04 04:02:00,
2013-05-03 21:22:00,45.0,9.0,-100.00,North,359,0.0,0.0,23,0.00,,,0.00,0.000000,,2013-05-04 04:22:00,
2013-05-03 21:32:00,45.0,9.0,-100.00,North,359,0.0,0.0,23,0.00,,,0.00,0.000000,,2013-05-04 04:32:00,
2013-05-03 22:02:00,42.0,8.0,-100.00,North,1,0.0,0.0,24,0.00,,,0.00,0.000000,,2013-05-04 05:02:00,
2013-05-03 22:21:00,42.0,8.0,-100.00,North,1,0.0,0.0,24,0.00,,,0.00,0.000000,,2013-05-04 05:21:00,
2013-05-03 22:32:00,42.0,8.0,-100.00,North,1,0.0,0.0,24,0.00,,,0.00,0.000000,,2013-05-04 05:32:00,
2013-05-03 23:01:00,40.0,5.0,-100.00,NNW,342,0.0,0.0,23,0.00,,,0.00,0.000000,,2013-05-04 06:01:00,